Time;durP1;ratioP1;P1;durP2;ratioP2;P2;SDS_P1;SDS_P2;PMS_P1;PMS_P2;Temp;Humidity;BMP_temperature;BMP_pressure;BME280_temperature;BME280_humidity;BME280_pressure;Samples;Min_cycle;Max_cycle;Signal;HPM_P1;HPM_P2
2023/10/16 00:02:22;;;;;;;2.47;1.90;;;;;;;17.53;nan;61461.59;5033404;28;20168;-66
2023/10/16 00:04:48;;;;;;;1.70;1.58;;;;;;;17.83;nan;61363.22;5033430;28;20662;-67
2023/10/16 00:07:15;;;;;;;2.83;1.83;;;;;;;17.91;nan;61351.00;5032997;28;20267;-68
2023/10/16 00:09:41;;;;;;;1.70;1.55;;;;;;;17.51;nan;61368.91;5031744;28;20175;-65
2023/10/16 00:12:08;;;;;;;2.90;2.10;;;;;;;17.44;nan;61461.16;5032606;28;20227;-67
2023/10/16 00:14:36;;;;;;;2.30;1.30;;;;;;;17.58;nan;61334.94;5032755;28;20183;-65
2023/10/16 00:17:06;;;;;;;1.52;1.40;;;;;;;17.30;nan;61228.97;5033702;28;20203;-65
2023/10/16 00:19:34;;;;;;;4.55;3.05;;;;;;;17.45;nan;61346.06;5033601;28;20236;-67
2023/10/16 00:22:00;;;;;;;3.00;2.28;;;;;;;17.36;nan;61439.75;5032914;28;20644;-66
2023/10/16 00:24:26;;;;;;;7.70;2.53;;;;;;;16.96;nan;61368.69;5032953;28;20552;-67
2023/10/16 00:26:51;;;;;;;18.40;3.25;;;;;;;17.17;nan;61601.56;5033299;28;20622;-65
2023/10/16 00:29:19;;;;;;;2.13;1.75;;;;;;;16.93;nan;61264.66;5032206;28;20292;-65
2023/10/16 00:31:45;;;;;;;2.08;1.90;;;;;;;17.05;nan;61306.63;5032512;28;20191;-69
2023/10/16 00:34:19;;;;;;;1.92;1.75;;;;;;;16.93;nan;61371.03;5032549;28;20182;-63
2023/10/16 00:36:45;;;;;;;4.03;2.45;;;;;;;16.83;nan;61258.53;5032660;28;20218;-67
2023/10/16 00:39:13;;;;;;;3.17;2.33;;;;;;;16.72;nan;61239.50;5032231;28;20560;-68
2023/10/16 00:41:46;;;;;;;3.55;2.00;;;;;;;16.49;nan;61362.53;5032348;28;20175;-64
2023/10/16 00:44:14;;;;;;;1.33;1.23;;;;;;;16.69;nan;61511.59;5032555;28;20190;-67
2023/10/16 00:46:44;;;;;;;1.98;1.80;;;;;;;16.40;nan;61218.28;5031788;28;20620;-65
2023/10/16 00:49:12;;;;;;;7.65;2.78;;;;;;;16.55;nan;61204.28;5032590;28;20190;-68
2023/10/16 00:51:39;;;;;;;1.65;1.55;;;;;;;16.53;nan;61228.38;5032264;28;20263;-69
2023/10/16 00:54:16;;;;;;;1.83;1.60;;;;;;;16.28;nan;61213.03;5029428;28;20186;-64
2023/10/16 00:56:46;;;;;;;0.98;0.98;;;;;;;16.26;nan;61143.75;5031681;28;20191;-66
2023/10/16 00:59:18;;;;;;;0.90;0.90;;;;;;;16.26;nan;61157.22;5031721;28;20187;-65
2023/10/16 01:01:46;;;;;;;1.08;1.08;;;;;;;16.21;nan;61210.28;5031913;28;20163;-63
2023/10/16 01:04:19;;;;;;;1.88;1.45;;;;;;;16.42;nan;61210.78;5032124;28;20548;-69
2023/10/16 01:06:45;;;;;;;3.33;1.67;;;;;;;16.30;nan;61254.53;5031593;28;20163;-67
2023/10/16 01:09:22;;;;;;;1.77;1.40;;;;;;;16.32;nan;61467.63;5032026;28;20305;-66
2023/10/16 01:11:48;;;;;;;1.92;1.58;;;;;;;16.37;nan;61220.59;5031415;28;20309;-65
2023/10/16 01:14:13;;;;;;;1.33;1.23;;;;;;;16.29;nan;61268.28;5031915;28;20220;-65
2023/10/16 01:16:39;;;;;;;1.15;1.15;;;;;;;16.26;nan;61216.50;5032097;28;20195;-63
2023/10/16 01:19:08;;;;;;;1.70;1.33;;;;;;;16.07;nan;61321.34;5034752;28;20168;-65
2023/10/16 01:21:34;;;;;;;0.90;0.90;;;;;;;16.01;nan;61159.38;5031681;28;20183;-65
2023/10/16 01:24:14;;;;;;;1.30;1.20;;;;;;;16.00;nan;61313.41;5031761;28;20171;-68
2023/10/16 01:26:42;;;;;;;1.10;1.10;;;;;;;16.23;nan;61204.81;5029986;28;20199;-68
2023/10/16 01:29:09;;;;;;;0.70;0.70;;;;;;;16.15;nan;61319.50;5029718;28;20167;-65
2023/10/16 01:31:43;;;;;;;1.42;1.02;;;;;;;15.93;nan;61122.03;5029469;28;20176;-65
2023/10/16 01:34:12;;;;;;;1.50;1.20;;;;;;;16.07;nan;61169.28;5029757;28;20582;-66
2023/10/16 01:36:45;;;;;;;0.95;0.95;;;;;;;15.91;nan;61154.38;5029503;28;20195;-64
2023/10/16 01:39:47;;;;;;;1.10;1.00;;;;;;;15.75;nan;61280.56;5028805;28;20175;-68
2023/10/16 01:41:57;;;;;;;1.65;1.42;;;;;;;15.89;nan;61177.91;5031247;28;20273;-65
2023/10/16 01:44:22;;;;;;;1.40;1.30;;;;;;;15.79;nan;61189.22;5031651;28;20222;-70
2023/10/16 01:46:48;;;;;;;0.80;0.80;;;;;;;15.51;nan;61132.47;5031485;28;20199;-68
2023/10/16 01:49:13;;;;;;;1.00;1.00;;;;;;;15.71;nan;61265.75;5032347;28;20177;-69
2023/10/16 01:51:43;;;;;;;0.95;0.95;;;;;;;15.78;nan;61183.50;5035220;28;20182;-67
2023/10/16 01:54:14;;;;;;;1.02;1.02;;;;;;;15.46;nan;61263.81;5035522;28;20682;-68
2023/10/16 01:56:41;;;;;;;0.90;0.90;;;;;;;15.48;nan;61049.25;5035124;28;20202;-65
2023/10/16 01:59:07;;;;;;;1.00;1.00;;;;;;;15.49;nan;61251.16;5035174;28;20229;-68
2023/10/16 02:01:32;;;;;;;1.00;1.00;;;;;;;15.65;nan;61256.41;5035206;28;20658;-66
2023/10/16 02:03:57;;;;;;;1.05;1.02;;;;;;;15.67;nan;61170.53;5035301;28;20175;-69
2023/10/16 02:06:25;;;;;;;0.93;0.93;;;;;;;15.66;nan;61164.81;5035119;28;20623;-68
2023/10/16 02:08:51;;;;;;;0.93;0.90;;;;;;;15.69;nan;61351.06;5035509;28;20191;-70
2023/10/16 02:11:16;;;;;;;0.90;0.90;;;;;;;15.42;nan;61099.69;5034603;28;20171;-66
2023/10/16 02:13:43;;;;;;;0.93;0.93;;;;;;;15.57;nan;61254.53;5035110;28;20622;-70
2023/10/16 02:16:10;;;;;;;0.88;0.88;;;;;;;15.27;nan;61219.16;5035209;28;20587;-68
2023/10/16 02:18:47;;;;;;;1.30;1.20;;;;;;;15.49;nan;61225.41;5038196;28;20206;-63
2023/10/16 02:21:13;;;;;;;1.20;1.10;;;;;;;15.43;nan;61126.00;5035112;28;20160;-69
2023/10/16 02:23:48;;;;;;;0.80;0.80;;;;;;;15.61;nan;61228.72;5034758;28;20171;-64
2023/10/16 02:26:18;;;;;;;0.80;0.80;;;;;;;15.34;nan;61221.38;5035211;28;20179;-66
2023/10/16 02:28:46;;;;;;;1.10;1.10;;;;;;;15.53;nan;61111.56;5034798;28;20171;-65
2023/10/16 02:31:13;;;;;;;1.38;1.02;;;;;;;15.50;nan;61383.59;5034948;28;20533;-66
2023/10/16 02:33:55;;;;;;;0.85;0.85;;;;;;;15.29;nan;61234.31;5035058;28;20211;-68
2023/10/16 02:36:22;;;;;;;0.90;0.90;;;;;;;15.47;nan;61275.22;5035120;28;20179;-64
2023/10/16 02:38:48;;;;;;;0.80;0.80;;;;;;;15.37;nan;61119.22;5034613;28;20222;-66
2023/10/16 02:41:19;;;;;;;0.80;0.80;;;;;;;15.43;nan;61144.56;5034596;28;20646;-67
2023/10/16 02:43:46;;;;;;;0.88;0.88;;;;;;;12.82;nan;62512.13;5034793;28;20230;-68
2023/10/16 02:46:13;;;;;;;0.90;0.90;;;;;;;15.47;nan;61125.34;5034728;28;20182;-64
2023/10/16 02:48:42;;;;;;;0.80;0.80;;;;;;;15.50;nan;61247.16;5034074;28;20558;-67
2023/10/16 02:51:09;;;;;;;1.00;1.00;;;;;;;15.34;nan;61252.25;5034530;28;20329;-68
2023/10/16 02:53:36;;;;;;;2.72;1.67;;;;;;;15.38;nan;61115.78;5034704;28;20250;-69
2023/10/16 02:56:05;;;;;;;0.90;0.90;;;;;;;15.32;nan;61072.97;5034390;28;20245;-64
2023/10/16 02:58:32;;;;;;;1.10;1.10;;;;;;;15.23;nan;61082.84;5034074;28;20207;-69
2023/10/16 03:01:06;;;;;;;0.95;0.95;;;;;;;15.21;nan;61096.03;5033991;28;20175;-66
2023/10/16 03:03:32;;;;;;;0.80;0.80;;;;;;;15.37;nan;61212.44;5033973;28;20183;-67
2023/10/16 03:06:03;;;;;;;0.80;0.80;;;;;;;15.17;nan;61035.47;5033728;28;20172;-69
2023/10/16 03:08:32;;;;;;;0.98;0.98;;;;;;;15.12;nan;61211.97;5034325;28;20638;-65
2023/10/16 03:11:05;;;;;;;0.80;0.80;;;;;;;15.26;nan;61254.06;5034428;28;20258;-68
2023/10/16 03:13:35;;;;;;;1.33;1.23;;;;;;;15.21;nan;61225.28;5033978;28;20189;-65
2023/10/16 03:16:22;;;;;;;0.77;0.77;;;;;;;15.13;nan;61151.91;5034123;28;20175;-69
2023/10/16 03:18:48;;;;;;;0.70;0.70;;;;;;;14.81;nan;61144.09;5037381;28;20565;-68
2023/10/16 03:23:46;;;;;;;0.93;0.93;;;;;;;14.87;nan;61081.44;5032936;28;20179;-66
2023/10/16 03:28:47;;;;;;;1.52;1.42;;;;;;;14.41;nan;61014.75;5033959;28;20202;-68
2023/10/16 03:31:12;;;;;;;0.90;0.90;;;;;;;14.54;nan;61063.38;5032272;28;20641;-66
2023/10/16 03:33:38;;;;;;;1.65;1.55;;;;;;;14.48;nan;61030.31;5033203;28;20183;-67
2023/10/16 03:36:04;;;;;;;1.00;1.00;;;;;;;14.25;nan;61040.94;5033868;28;20167;-67
2023/10/16 03:38:36;;;;;;;4.10;2.60;;;;;;;14.28;nan;61048.91;5033082;28;20584;-68
2023/10/16 03:41:05;;;;;;;1.15;1.15;;;;;;;14.16;nan;60982.56;5033483;28;20179;-65
2023/10/16 03:43:32;;;;;;;0.90;0.90;;;;;;;14.14;nan;61018.28;5033290;28;20190;-65
2023/10/16 03:45:58;;;;;;;1.00;0.90;;;;;;;13.96;nan;60980.59;5033229;28;20631;-68
2023/10/16 03:48:25;;;;;;;0.93;0.93;;;;;;;13.89;nan;61113.34;5033690;28;20227;-65
2023/10/16 03:50:54;;;;;;;1.23;1.13;;;;;;;13.61;nan;61036.13;5031957;28;20198;-64
2023/10/16 03:53:20;;;;;;;0.90;0.90;;;;;;;13.73;nan;60985.50;5033202;28;20179;-67
2023/10/16 03:55:49;;;;;;;0.90;0.90;;;;;;;13.50;nan;60937.06;5033023;28;20185;-68
2023/10/16 03:58:16;;;;;;;1.20;1.10;;;;;;;13.65;nan;61017.53;5032857;28;20281;-67
2023/10/16 04:00:52;;;;;;;1.20;1.10;;;;;;;13.50;nan;61062.25;5031285;28;20188;-69
2023/10/16 04:03:26;;;;;;;1.00;1.00;;;;;;;13.53;nan;60973.81;5028275;28;20228;-67
2023/10/16 04:05:53;;;;;;;1.65;1.55;;;;;;;13.46;nan;60932.00;5030691;28;20329;-65
2023/10/16 04:08:26;;;;;;;0.90;0.90;;;;;;;13.56;nan;61069.00;5032822;28;20171;-69
2023/10/16 04:10:53;;;;;;;2.03;1.85;;;;;;;13.23;nan;60886.72;5032309;28;20631;-69
2023/10/16 04:13:19;;;;;;;2.70;1.00;;;;;;;13.16;nan;61060.94;5032173;28;20250;-67
2023/10/16 04:50:37;;;;;;;0.95;0.95;;;;;;;13.37;nan;61070.66;5011969;28;20184;-65
2023/10/16 04:56:29;;;;;;;2.10;1.90;;;;;;;13.36;nan;61056.72;5011815;28;20198;-66
2023/10/16 05:02:10;;;;;;;1.20;1.20;;;;;;;13.33;nan;61014.84;5031510;28;20223;-69
2023/10/16 05:13:22;;;;;;;1.35;1.27;;;;;;;13.38;nan;60941.53;5031135;28;20230;-68
2023/10/16 05:17:21;;;;;;;1.20;1.20;;;;;;;13.41;nan;60934.09;5031530;28;20412;-66
2023/10/16 05:19:53;;;;;;;8.63;2.08;;;;;;;13.61;nan;60951.44;5033339;28;20571;-67
2023/10/16 06:14:16;;;;;;;1.73;1.63;;;;;;;13.34;nan;60900.53;5035532;28;20182;-68
2023/10/16 06:16:45;;;;;;;1.20;1.13;;;;;;;13.24;nan;60943.72;5035097;28;20167;-70
2023/10/16 06:19:15;;;;;;;0.98;0.98;;;;;;;13.47;nan;60930.56;5038850;28;20171;-67
2023/10/16 06:21:47;;;;;;;3.78;2.25;;;;;;;13.52;nan;61020.88;5034898;28;20176;-66
2023/10/16 06:27:01;;;;;;;1.20;1.10;;;;;;;13.58;nan;60930.13;5035232;28;20281;-67
2023/10/16 06:29:35;;;;;;;3.72;2.15;;;;;;;13.55;nan;61209.00;5035094;28;20187;-67
2023/10/16 06:32:19;;;;;;;1.75;1.45;;;;;;;13.57;nan;61065.00;5034240;28;20159;-69
2023/10/16 06:34:49;;;;;;;1.58;1.48;;;;;;;13.73;nan;60962.41;5033032;28;20195;-66
2023/10/16 06:37:18;;;;;;;1.30;1.20;;;;;;;13.73;nan;60936.72;5034453;28;20222;-68
2023/10/16 06:39:48;;;;;;;1.20;1.10;;;;;;;13.82;nan;61251.81;5034587;28;20175;-66
2023/10/16 06:42:20;;;;;;;1.25;1.15;;;;;;;13.79;nan;60961.44;5034959;28;20176;-67
2023/10/16 06:45:06;;;;;;;0.90;0.90;;;;;;;13.57;nan;61057.31;5034598;28;20179;-67
2023/10/16 06:47:47;;;;;;;1.67;1.25;;;;;;;13.65;nan;60968.78;5034569;28;20246;-70
2023/10/16 06:52:51;;;;;;;3.03;2.20;;;;;;;13.73;nan;60975.78;5034045;28;20321;-68
2023/10/16 06:55:17;;;;;;;3.40;1.52;;;;;;;13.74;nan;60937.84;5034332;28;20715;-65
2023/10/16 06:57:43;;;;;;;1.10;1.10;;;;;;;13.61;nan;61066.94;5034595;28;20313;-66
2023/10/16 07:00:22;;;;;;;1.05;1.05;;;;;;;13.80;nan;60990.81;5034136;28;20171;-65
2023/10/16 07:02:47;;;;;;;2.03;1.63;;;;;;;13.85;nan;61106.28;5034386;28;20650;-67
2023/10/16 07:05:14;;;;;;;0.93;0.93;;;;;;;13.62;nan;61062.94;5033948;28;20152;-67
2023/10/16 07:07:39;;;;;;;0.90;0.90;;;;;;;13.75;nan;60935.84;5032384;28;20581;-71
2023/10/16 07:10:13;;;;;;;2.28;1.75;;;;;;;13.90;nan;61027.75;5033521;28;20163;-65
2023/10/16 07:12:56;;;;;;;2.75;2.25;;;;;;;13.71;nan;61099.31;5034176;28;20255;-67
2023/10/16 07:15:25;;;;;;;1.00;1.00;;;;;;;13.99;nan;60965.44;5034258;28;20237;-66
2023/10/16 07:17:51;;;;;;;0.88;0.88;;;;;;;14.02;nan;60974.50;5034398;28;20191;-66
2023/10/16 07:20:51;;;;;;;0.95;0.95;;;;;;;13.97;nan;60970.88;5036354;28;20179;-70
2023/10/16 07:23:10;;;;;;;2.13;1.80;;;;;;;13.75;nan;61061.63;5033189;28;20183;-66
2023/10/16 07:25:54;;;;;;;1.88;1.77;;;;;;;13.86;nan;61197.84;5033877;28;20179;-67
2023/10/16 07:28:19;;;;;;;15.98;3.03;;;;;;;13.81;nan;61155.69;5033763;28;20170;-65
2023/10/16 07:30:45;;;;;;;1.30;1.30;;;;;;;13.96;nan;61096.16;5033928;28;20176;-67
2023/10/16 07:33:17;;;;;;;0.90;0.90;;;;;;;14.02;nan;60956.53;5033432;28;20167;-66
2023/10/16 07:35:46;;;;;;;1.38;1.00;;;;;;;13.86;nan;61084.88;5033282;28;20183;-69
2023/10/16 07:38:12;;;;;;;0.93;0.90;;;;;;;13.79;nan;61066.13;5032740;28;20195;-66
2023/10/16 07:40:38;;;;;;;0.82;0.82;;;;;;;14.15;nan;61122.69;5033125;28;20199;-65
2023/10/16 07:43:05;;;;;;;1.17;1.08;;;;;;;13.99;nan;61098.97;5032948;28;20203;-65
2023/10/16 07:45:32;;;;;;;1.00;1.00;;;;;;;14.22;nan;61037.00;5033183;28;20172;-68
2023/10/16 07:48:07;;;;;;;1.23;1.20;;;;;;;13.84;nan;61112.84;5032149;28;20236;-65
2023/10/16 07:50:38;;;;;;;0.88;0.88;;;;;;;14.06;nan;60896.81;5033267;28;20211;-70
2023/10/16 07:53:05;;;;;;;1.17;1.15;;;;;;;14.11;nan;60912.16;5033427;28;20210;-68
2023/10/16 07:55:39;;;;;;;1.13;1.13;;;;;;;14.19;nan;60938.56;5033352;28;20179;-66
2023/10/16 07:58:12;;;;;;;0.80;0.80;;;;;;;14.43;nan;61291.97;5033255;28;20615;-68
2023/10/16 08:00:42;;;;;;;0.75;0.75;;;;;;;14.28;nan;60921.00;5033174;28;20178;-67
2023/10/16 08:03:13;;;;;;;1.17;1.02;;;;;;;14.43;nan;61037.53;5033568;28;20245;-64
2023/10/16 08:05:47;;;;;;;2.13;1.73;;;;;;;14.41;nan;61035.88;5032871;28;20163;-67
2023/10/16 08:08:13;;;;;;;1.65;1.55;;;;;;;14.52;nan;61014.28;5033021;28;20183;-67
2023/10/16 08:10:41;;;;;;;5.07;2.45;;;;;;;14.48;nan;60946.09;5032858;28;20203;-66
2023/10/16 08:13:13;;;;;;;1.33;1.23;;;;;;;14.48;nan;61082.31;5031625;28;20596;-67
2023/10/16 08:15:48;;;;;;;4.10;2.65;;;;;;;14.57;nan;61015.31;5031819;28;20206;-70
2023/10/16 08:18:15;;;;;;;1.80;1.70;;;;;;;14.98;nan;61076.38;5033252;28;20199;-65
2023/10/16 08:21:00;;;;;;;15.73;2.08;;;;;;;14.91;nan;61140.53;5035725;28;20194;-69
2023/10/16 08:23:31;;;;;;;1.10;1.10;;;;;;;14.88;nan;61193.72;5033400;28;20201;-67
2023/10/16 08:26:00;;;;;;;0.80;0.80;;;;;;;15.04;nan;61196.34;5032909;28;20294;-66
2023/10/16 08:28:35;;;;;;;0.90;0.90;;;;;;;15.15;nan;61025.53;5032776;28;20179;-70
2023/10/16 08:31:22;;;;;;;1.10;1.10;;;;;;;15.14;nan;61078.41;5033406;28;20171;-67
2023/10/16 08:33:47;;;;;;;1.92;1.45;;;;;;;15.32;nan;61139.31;5032139;28;20179;-66
2023/10/16 08:36:12;;;;;;;1.08;1.08;;;;;;;15.44;nan;61260.97;5032607;28;20175;-70
2023/10/16 08:38:40;;;;;;;3.40;1.33;;;;;;;15.50;nan;61352.72;5032505;28;20245;-69
2023/10/16 08:41:14;;;;;;;1.27;1.17;;;;;;;15.61;nan;61295.66;5032570;28;20178;-68
2023/10/16 08:43:53;;;;;;;0.73;0.73;;;;;;;15.79;nan;61155.75;5032908;28;20172;-65
2023/10/16 08:46:24;;;;;;;1.70;1.35;;;;;;;16.18;nan;61196.59;5032583;28;20156;-65
2023/10/16 08:48:52;;;;;;;1.10;1.08;;;;;;;16.03;nan;61270.44;5033038;28;20180;-67
2023/10/16 08:51:19;;;;;;;0.70;0.70;;;;;;;15.79;nan;61146.00;5032326;28;20163;-68
2023/10/16 08:53:45;;;;;;;1.55;1.45;;;;;;;15.72;nan;61246.28;5032226;28;20642;-63
2023/10/16 08:56:12;;;;;;;1.40;1.27;;;;;;;15.70;nan;61141.00;5030926;28;20179;-70
2023/10/16 08:58:45;;;;;;;1.58;1.38;;;;;;;15.96;nan;61290.84;5031389;28;20199;-68
2023/10/16 09:01:13;;;;;;;5.53;2.20;;;;;;;15.98;nan;61418.81;5031819;28;20159;-66
2023/10/16 09:03:56;;;;;;;7.93;2.88;;;;;;;15.47;nan;61156.25;5031010;28;20191;-67
2023/10/16 09:06:23;;;;;;;1.92;1.83;;;;;;;15.36;nan;61118.09;5014664;28;20179;-72
2023/10/16 09:08:58;;;;;;;0.90;0.90;;;;;;;15.23;nan;61098.84;5031646;28;20167;-68
2023/10/16 09:11:25;;;;;;;1.20;1.20;;;;;;;15.32;nan;61103.28;5031579;28;20238;-67
2023/10/16 09:13:52;;;;;;;0.70;0.70;;;;;;;15.22;nan;61313.31;5031806;28;20166;-67
2023/10/16 09:16:21;;;;;;;1.58;1.10;;;;;;;15.14;nan;61080.44;5031714;28;20175;-65
2023/10/16 09:18:47;;;;;;;0.82;0.82;;;;;;;15.44;nan;61114.25;5032147;28;20574;-64
2023/10/16 09:21:13;;;;;;;0.85;0.85;;;;;;;15.60;nan;61129.72;5032791;28;20536;-66
2023/10/16 09:23:51;;;;;;;0.85;0.85;;;;;;;15.90;nan;61287.22;5031441;28;20171;-66
2023/10/16 09:26:17;;;;;;;1.30;1.20;;;;;;;15.86;nan;61148.75;5030951;28;20637;-67
2023/10/16 09:28:44;;;;;;;1.20;1.10;;;;;;;15.90;nan;61171.31;5030279;28;20183;-66
2023/10/16 09:31:13;;;;;;;0.82;0.82;;;;;;;16.10;nan;61198.44;5029965;28;20171;-66
2023/10/16 09:33:39;;;;;;;0.77;0.77;;;;;;;16.13;nan;61281.16;5028635;28;20711;-68
2023/10/16 09:36:18;;;;;;;0.90;0.90;;;;;;;16.25;nan;61207.63;5030166;28;20539;-66
2023/10/16 09:38:56;;;;;;;1.10;1.00;;;;;;;16.57;nan;61230.28;5030224;28;20207;-66
2023/10/16 09:43:56;;;;;;;0.95;0.95;;;;;;;16.37;nan;61173.66;5031183;28;20194;-66
2023/10/16 09:49:23;;;;;;;1.58;1.48;;;;;;;16.65;nan;61251.66;5037982;28;20196;-66
2023/10/16 09:51:50;;;;;;;5.60;1.73;;;;;;;16.83;nan;61250.81;5011880;28;20191;-65
2023/10/16 09:54:17;;;;;;;2.83;0.90;;;;;;;16.64;nan;61362.03;5011505;28;20725;-67
2023/10/16 09:56:48;;;;;;;1.17;1.08;;;;;;;16.94;nan;61410.31;5011596;28;20176;-67
2023/10/16 09:59:23;;;;;;;0.90;0.90;;;;;;;17.34;nan;61331.63;5013892;28;20775;-67
2023/10/16 10:01:55;;;;;;;1.02;1.02;;;;;;;17.40;nan;61555.34;5030793;28;20197;-70
2023/10/16 10:04:24;;;;;;;5.65;3.85;;;;;;;17.29;nan;61281.53;5031258;28;20167;-65
2023/10/16 10:06:59;;;;;;;9.10;3.38;;;;;;;17.57;nan;61460.41;5030825;28;20241;-67
2023/10/16 10:09:41;;;;;;;1.55;1.45;;;;;;;17.69;nan;61486.91;5031021;28;20164;-67
2023/10/16 10:12:42;;;;;;;15.10;9.10;;;;;;;18.12;nan;61491.09;5034238;28;20222;-68
2023/10/16 10:15:14;;;;;;;8.90;4.47;;;;;;;18.23;nan;61484.88;5034553;28;20168;-64
2023/10/16 10:17:42;;;;;;;1.92;1.63;;;;;;;18.32;nan;61418.03;5034868;28;20234;-69
2023/10/16 10:20:09;;;;;;;0.93;0.93;;;;;;;18.22;nan;61541.19;5037075;28;20229;-69
2023/10/16 10:22:36;;;;;;;28.15;13.27;;;;;;;18.02;nan;61513.38;5034472;28;20180;-67
2023/10/16 10:25:16;;;;;;;15.55;6.53;;;;;;;18.09;nan;61469.59;5034274;28;20175;-64
2023/10/16 10:27:43;;;;;;;2.35;2.15;;;;;;;18.12;nan;61498.28;5033397;28;20174;-65
2023/10/16 10:30:19;;;;;;;1.10;1.00;;;;;;;18.15;nan;61328.44;5034156;28;20168;-69
2023/10/16 10:32:57;;;;;;;1.38;0.82;;;;;;;18.27;nan;61385.94;5032653;28;20607;-67
2023/10/16 10:35:38;;;;;;;1.63;1.17;;;;;;;18.28;nan;61526.72;5034134;28;20310;-70
2023/10/16 10:38:17;;;;;;;1.70;1.60;;;;;;;18.68;nan;61540.47;5033292;28;20229;-65
2023/10/16 10:41:12;;;;;;;1.35;1.15;;;;;;;18.59;nan;61497.19;5033931;28;20164;-65
2023/10/16 10:43:46;;;;;;;7.15;3.33;;;;;;;18.74;nan;61485.69;5033609;28;20160;-68
2023/10/16 10:46:13;;;;;;;3.17;2.03;;;;;;;18.84;nan;61605.16;5033532;28;20171;-66
2023/10/16 10:48:41;;;;;;;1.42;1.33;;;;;;;18.76;nan;61524.19;5033767;28;20180;-66
2023/10/16 10:51:13;;;;;;;1.65;1.52;;;;;;;18.72;nan;61638.16;5033895;28;20229;-66
2023/10/16 10:53:54;;;;;;;2.50;2.15;;;;;;;18.86;nan;61441.75;5033755;28;20725;-64
2023/10/16 10:56:22;;;;;;;1.63;1.50;;;;;;;18.69;nan;61456.16;5033631;28;20159;-66
2023/10/16 10:58:49;;;;;;;0.65;0.65;;;;;;;18.74;nan;61622.31;5033280;28;20203;-64
2023/10/16 11:01:34;;;;;;;3.08;1.60;;;;;;;18.72;nan;61490.63;5033734;28;20174;-68
2023/10/16 11:04:01;;;;;;;5.82;2.63;;;;;;;18.95;nan;61529.63;5033846;28;20237;-69
2023/10/16 11:06:40;;;;;;;3.33;2.85;;;;;;;19.03;nan;61522.56;5033738;28;20195;-67
2023/10/16 11:09:11;;;;;;;2.13;1.77;;;;;;;19.22;nan;61570.53;5033541;28;20162;-70
2023/10/16 11:11:39;;;;;;;5.05;1.40;;;;;;;18.97;nan;61612.13;5033298;28;20227;-68
2023/10/16 11:14:07;;;;;;;0.80;0.80;;;;;;;19.04;nan;61516.50;5033456;28;20182;-65
2023/10/16 11:16:40;;;;;;;1.23;1.13;;;;;;;19.22;nan;61490.25;5033757;28;20229;-67
2023/10/16 11:19:09;;;;;;;0.75;0.75;;;;;;;19.15;nan;61604.06;5033807;28;20210;-66
2023/10/16 11:21:39;;;;;;;1.00;0.90;;;;;;;19.35;nan;61564.53;5036547;28;20254;-69
2023/10/16 11:24:06;;;;;;;2.58;1.55;;;;;;;19.47;nan;61540.75;5033404;28;20175;-67
2023/10/16 11:26:32;;;;;;;0.70;0.70;;;;;;;19.56;nan;61664.97;5033472;28;20168;-67
2023/10/16 11:29:00;;;;;;;0.35;0.35;;;;;;;19.38;nan;61674.16;5033616;28;20175;-66
2023/10/16 11:31:26;;;;;;;0.65;0.65;;;;;;;19.07;nan;61615.13;5033187;28;20171;-72
2023/10/16 11:34:01;;;;;;;0.70;0.70;;;;;;;19.04;nan;61653.75;5033225;28;20218;-68
2023/10/16 11:36:31;;;;;;;0.60;0.60;;;;;;;19.24;nan;61772.28;5032740;28;20187;-65
2023/10/16 11:39:03;;;;;;;0.52;0.52;;;;;;;19.30;nan;61553.69;5033063;28;20195;-68
2023/10/16 11:41:32;;;;;;;0.80;0.80;;;;;;;19.12;nan;61605.84;5033053;28;20547;-69
2023/10/16 11:44:01;;;;;;;0.60;0.60;;;;;;;19.17;nan;61551.38;5032602;28;20172;-67
2023/10/16 11:46:34;;;;;;;0.70;0.70;;;;;;;19.18;nan;61513.66;5032681;28;20247;-68
2023/10/16 11:51:47;;;;;;;0.60;0.60;;;;;;;19.02;nan;61599.69;5032785;28;20202;-68
2023/10/16 11:54:19;;;;;;;0.65;0.65;;;;;;;19.25;nan;61516.38;5032656;28;20652;-69
2023/10/16 11:56:48;;;;;;;0.85;0.85;;;;;;;19.26;nan;61645.03;5032775;28;20163;-67
2023/10/16 11:59:15;;;;;;;0.70;0.70;;;;;;;19.48;nan;61487.44;5032444;28;20225;-66
2023/10/16 12:01:41;;;;;;;0.88;0.80;;;;;;;19.58;nan;61579.13;5032804;28;20172;-66
2023/10/16 12:04:09;;;;;;;0.77;0.77;;;;;;;19.42;nan;61574.50;5032653;28;20198;-69
2023/10/16 12:06:35;;;;;;;1.45;0.90;;;;;;;19.54;nan;61500.00;5032782;28;20207;-65
2023/10/16 12:09:00;;;;;;;2.05;1.05;;;;;;;19.50;nan;61653.56;5032337;28;20168;-70
2023/10/16 12:11:26;;;;;;;1.05;1.05;;;;;;;19.62;nan;61558.28;5032044;28;20270;-64
2023/10/16 12:13:51;;;;;;;0.80;0.80;;;;;;;19.48;nan;61573.53;5032329;28;20226;-66
2023/10/16 12:16:24;;;;;;;0.60;0.60;;;;;;;19.19;nan;61621.53;5032479;28;20179;-67
2023/10/16 12:18:51;;;;;;;0.50;0.50;;;;;;;19.22;nan;61536.88;5032586;28;20191;-69
2023/10/16 12:21:19;;;;;;;0.63;0.63;;;;;;;19.08;nan;61476.44;5035698;28;20196;-69
2023/10/16 12:23:44;;;;;;;1.63;1.23;;;;;;;18.88;nan;61480.25;5032059;28;20176;-64
2023/10/16 12:26:10;;;;;;;0.60;0.60;;;;;;;18.78;nan;61562.13;5031911;28;20273;-67
2023/10/16 12:28:36;;;;;;;1.33;1.10;;;;;;;19.13;nan;61497.63;5030664;28;20298;-64
2023/10/16 12:31:02;;;;;;;0.80;0.80;;;;;;;19.17;nan;61528.63;5030501;28;20187;-66
2023/10/16 12:33:30;;;;;;;1.55;1.20;;;;;;;19.11;nan;61487.59;5031825;28;20262;-68
2023/10/16 12:35:57;;;;;;;2.22;1.88;;;;;;;19.00;nan;61605.19;5032069;28;20175;-69
2023/10/16 12:38:25;;;;;;;1.40;1.20;;;;;;;19.15;nan;61539.28;5031893;28;20281;-66
2023/10/16 12:40:55;;;;;;;0.98;0.93;;;;;;;19.42;nan;61527.88;5032048;28;20179;-70
2023/10/16 12:43:25;;;;;;;1.50;0.93;;;;;;;19.51;nan;61693.00;5031971;28;20167;-68
2023/10/16 12:45:51;;;;;;;1.40;1.30;;;;;;;19.52;nan;61531.41;5031981;28;20186;-68
2023/10/16 12:48:17;;;;;;;1.17;1.08;;;;;;;19.37;nan;61639.34;5031918;28;20642;-70
2023/10/16 12:50:47;;;;;;;1.23;1.10;;;;;;;19.44;nan;61793.88;5031651;28;20175;-67
2023/10/16 12:53:12;;;;;;;1.08;0.98;;;;;;;19.24;nan;61666.06;5031805;28;20175;-67
2023/10/16 12:55:40;;;;;;;1.30;1.10;;;;;;;19.31;nan;61676.59;5032096;28;20209;-65
2023/10/16 12:58:10;;;;;;;1.30;1.20;;;;;;;19.21;nan;61664.69;5031366;28;20269;-67
2023/10/16 13:00:39;;;;;;;1.73;1.10;;;;;;;19.35;nan;61501.78;5031516;28;20163;-67
2023/10/16 13:03:15;;;;;;;1.48;0.75;;;;;;;19.19;nan;61408.59;5031838;28;20274;-67
2023/10/16 13:05:41;;;;;;;1.05;0.93;;;;;;;19.33;nan;61489.72;5031832;28;20253;-63
2023/10/16 13:08:11;;;;;;;3.20;1.13;;;;;;;19.57;nan;61658.88;5031704;28;20643;-68
2023/10/16 13:10:36;;;;;;;1.10;0.73;;;;;;;19.56;nan;61764.03;5030181;28;20600;-67
2023/10/16 13:13:02;;;;;;;0.68;0.68;;;;;;;19.60;nan;61569.00;5031471;28;20227;-65
2023/10/16 13:15:31;;;;;;;0.40;0.40;;;;;;;19.43;nan;61645.59;5031667;28;20175;-66
2023/10/16 13:17:58;;;;;;;1.63;1.00;;;;;;;19.36;nan;61524.22;5031594;28;20249;-66
2023/10/16 13:20:29;;;;;;;0.73;0.73;;;;;;;19.41;nan;61597.25;5034203;28;20180;-67
2023/10/16 13:22:56;;;;;;;0.60;0.60;;;;;;;19.49;nan;61675.16;5030834;28;20597;-67
2023/10/16 13:25:25;;;;;;;0.77;0.77;;;;;;;19.31;nan;61497.28;5031691;28;20171;-70
2023/10/16 13:27:51;;;;;;;0.60;0.60;;;;;;;19.39;nan;61540.56;5031341;28;20175;-67
2023/10/16 13:30:17;;;;;;;1.25;1.15;;;;;;;19.33;nan;61629.63;5031164;28;20187;-65
2023/10/16 13:32:46;;;;;;;0.57;0.57;;;;;;;19.25;nan;61667.19;5031135;28;20163;-68
2023/10/16 13:35:12;;;;;;;0.65;0.65;;;;;;;19.20;nan;61493.16;5031370;28;20670;-64
2023/10/16 13:37:50;;;;;;;0.90;0.90;;;;;;;19.18;nan;61503.84;5031409;28;20290;-69
2023/10/16 13:40:29;;;;;;;0.68;0.68;;;;;;;19.12;nan;61465.97;5031553;28;20179;-66
2023/10/16 13:42:55;;;;;;;1.10;1.10;;;;;;;19.31;nan;61515.97;5031289;28;20191;-69
2023/10/16 13:45:22;;;;;;;0.75;0.70;;;;;;;19.13;nan;61428.28;5031802;28;20670;-70
2023/10/16 13:47:49;;;;;;;0.70;0.70;;;;;;;19.34;nan;61770.69;5035277;28;20168;-69
2023/10/16 13:50:24;;;;;;;0.68;0.68;;;;;;;19.21;nan;61577.19;5035240;28;20630;-70
2023/10/16 13:52:51;;;;;;;1.00;0.80;;;;;;;19.11;nan;61470.03;5035312;28;20163;-68
2023/10/16 13:55:20;;;;;;;3.67;0.73;;;;;;;19.05;nan;61507.25;5035076;28;20630;-71
2023/10/16 13:57:50;;;;;;;0.90;0.90;;;;;;;18.90;nan;61493.44;5034753;28;20620;-67
2023/10/16 14:00:35;;;;;;;0.85;0.85;;;;;;;19.09;nan;61485.91;5034916;28;20172;-68
2023/10/16 14:03:16;;;;;;;0.60;0.60;;;;;;;18.78;nan;61474.69;5035226;28;20183;-68
2023/10/16 14:05:46;;;;;;;0.80;0.80;;;;;;;18.99;nan;61588.53;5035003;28;20167;-66
2023/10/16 14:08:15;;;;;;;0.63;0.63;;;;;;;18.87;nan;61469.34;5034833;28;20669;-71